Terminal Aerodrome Forecast
Issued by NWS Caribou, ME

Home | Current Version | Previous Version | Text Only | Print | Product List | Glossary On
Versions: 1 2 3 4 5 6 7 8 9 10 11 12 13 14
000
FTUS41 KCAR 060524
TAFCAR
TAF
KCAR 060524Z 0606/0706 28005KT P6SM SKC
     FM061100 30010KT P6SM FEW250
     FM061700 29014G25KT P6SM FEW100
     FM062300 31008KT P6SM FEW140=

USA.gov is the U.S. government's official web portal to all federal, state and local government web resources and services.